createdAt,value
2017-08-15T00:01:48.302Z,101225.63
2017-08-15T00:06:51.007Z,101221.95
2017-08-15T00:11:52.943Z,101215.59
2017-08-15T00:16:54.868Z,101216.45
2017-08-15T00:21:56.867Z,101205.90
2017-08-15T00:26:58.804Z,101197.66
2017-08-15T00:32:00.760Z,101192.71
2017-08-15T00:37:02.704Z,101183.83
2017-08-15T00:42:04.660Z,101189.27
2017-08-15T00:47:06.689Z,101183.38
2017-08-15T00:52:08.654Z,101173.33
2017-08-15T00:57:10.617Z,101175.36
2017-08-15T01:02:13.229Z,101162.01
2017-08-15T01:07:15.428Z,101154.32
2017-08-15T01:12:18.011Z,101155.33
2017-08-15T01:17:20.630Z,101159.28
2017-08-15T01:22:22.669Z,101159.14
2017-08-15T01:27:24.647Z,101152.87
2017-08-15T01:32:27.185Z,101147.25
2017-08-15T01:42:59.064Z,101135.45
2017-08-15T01:48:01.557Z,101140.46
2017-08-15T01:53:03.647Z,101139.94
2017-08-15T01:58:06.215Z,101134.27
2017-08-15T02:03:08.338Z,101128.66
2017-08-15T02:08:11.200Z,101128.34
2017-08-15T02:13:13.798Z,101135.31
2017-08-15T02:18:16.257Z,101152.97
2017-08-15T02:23:18.187Z,101149.69
2017-08-15T02:28:20.115Z,101148.52
2017-08-15T02:33:22.089Z,101144.91
2017-08-15T02:38:24.025Z,101141.82
2017-08-15T02:43:25.967Z,101142.00
2017-08-15T02:48:28.009Z,101144.31
2017-08-15T02:53:29.987Z,101138.97
2017-08-15T02:58:31.916Z,101136.36
2017-08-15T03:03:33.832Z,101133.56
2017-08-15T03:08:35.782Z,101131.12
2017-08-15T03:13:37.746Z,101128.14
2017-08-15T03:18:39.711Z,101122.31
2017-08-15T03:23:41.655Z,101116.60
2017-08-15T03:28:43.596Z,101110.38
2017-08-15T03:33:45.549Z,101105.83
2017-08-15T03:38:47.473Z,101103.71
2017-08-15T03:43:49.399Z,101105.91
2017-08-15T03:48:52.059Z,101102.45
2017-08-15T03:53:54.207Z,101101.91
2017-08-15T03:59:02.310Z,101099.75
2017-08-15T04:04:07.708Z,101098.92
2017-08-15T04:09:09.715Z,101105.02
2017-08-15T04:14:11.715Z,101098.27
2017-08-15T04:19:14.613Z,101096.15
2017-08-15T04:24:17.287Z,101099.00
2017-08-15T04:29:19.314Z,101094.56
2017-08-15T04:34:22.132Z,101090.71
2017-08-15T04:39:24.292Z,101106.39
2017-08-15T04:44:26.287Z,101090.97
2017-08-15T04:49:31.215Z,101090.45
2017-08-15T04:54:34.014Z,101082.86
2017-08-15T04:59:35.932Z,101078.08
2017-08-15T05:04:37.945Z,101068.35
2017-08-15T05:09:40.548Z,101077.41
2017-08-15T05:14:45.703Z,101059.51
2017-08-15T05:20:02.787Z,101063.42
2017-08-15T05:25:04.707Z,101053.89
2017-08-15T05:30:06.631Z,101051.39
2017-08-15T05:35:08.571Z,101055.43
2017-08-15T05:40:11.284Z,101050.41
2017-08-15T05:45:13.237Z,101056.39
2017-08-15T05:50:15.241Z,101059.03
2017-08-15T05:55:17.179Z,101050.02
2017-08-15T06:00:19.204Z,101051.95
2017-08-15T06:05:21.309Z,101042.78
2017-08-15T06:10:23.334Z,101054.02
2017-08-15T06:15:26.017Z,101048.45
2017-08-15T06:20:28.348Z,101050.12
2017-08-15T06:25:30.273Z,101055.48
2017-08-15T06:30:32.207Z,101059.30
2017-08-15T06:35:34.202Z,101054.20
2017-08-15T06:40:36.201Z,101059.94
2017-08-15T06:45:38.313Z,101058.95
2017-08-15T06:50:40.310Z,101053.55
2017-08-15T06:55:42.673Z,101046.39
2017-08-15T07:00:44.596Z,101051.83
2017-08-15T07:05:47.060Z,101043.55
2017-08-15T07:10:49.151Z,101038.39
2017-08-15T07:15:51.203Z,101025.00
2017-08-15T07:20:53.191Z,101020.98
2017-08-15T07:25:55.163Z,101016.47
2017-08-15T07:30:57.180Z,101025.19
2017-08-15T07:35:59.152Z,101051.11
2017-08-15T07:41:01.124Z,101052.92
2017-08-15T07:46:03.875Z,101061.15
2017-08-15T07:51:05.822Z,101064.16
2017-08-15T07:56:07.759Z,101066.59
2017-08-15T08:01:09.752Z,101047.70
2017-08-15T08:06:12.450Z,101030.36
2017-08-15T08:11:14.424Z,101046.27
2017-08-15T08:16:16.392Z,101061.79
2017-08-15T08:21:18.343Z,101041.80
2017-08-15T08:26:20.371Z,101043.62
2017-08-15T08:31:22.359Z,101026.38
2017-08-15T08:36:24.349Z,101018.02
2017-08-15T08:41:26.317Z,101018.77
2017-08-15T08:46:28.320Z,100998.22
2017-08-15T08:51:30.333Z,101001.78
2017-08-15T08:56:32.258Z,101015.25
2017-08-15T09:01:34.234Z,101039.27
2017-08-15T09:06:36.177Z,101052.33
2017-08-15T09:11:38.167Z,101067.13
2017-08-15T09:16:40.105Z,101077.16
2017-08-15T09:21:42.212Z,101076.03
2017-08-15T09:26:44.190Z,101078.54
2017-08-15T09:31:46.125Z,101083.42
2017-08-15T09:36:48.829Z,101084.96
2017-08-15T09:41:50.786Z,101080.83
2017-08-15T09:46:52.863Z,101077.46
2017-08-15T09:51:54.822Z,101089.29
2017-08-15T09:56:56.777Z,101091.99
2017-08-15T10:01:58.840Z,101090.05
2017-08-15T10:07:01.590Z,101086.31
2017-08-15T10:12:03.640Z,101078.80
2017-08-15T10:17:06.418Z,101084.70
2017-08-15T10:22:09.507Z,101071.91
2017-08-15T10:27:11.487Z,101063.73
2017-08-15T10:32:13.465Z,101055.36
2017-08-15T10:37:15.398Z,101045.16
2017-08-15T10:42:17.412Z,101034.45
2017-08-15T10:47:19.349Z,101038.02
2017-08-15T10:52:21.324Z,101039.98
2017-08-15T10:57:23.385Z,101046.56
2017-08-15T11:02:25.305Z,101041.52
2017-08-15T11:07:27.244Z,101044.27
2017-08-15T11:12:29.188Z,101035.72
2017-08-15T11:17:31.151Z,101027.72
2017-08-15T11:22:33.096Z,101010.48
2017-08-15T11:27:35.053Z,101016.27
2017-08-15T11:32:38.484Z,101000.39
2017-08-15T11:37:40.507Z,100986.73
2017-08-15T11:42:42.575Z,100988.20
2017-08-15T11:47:44.556Z,100976.53
2017-08-15T11:52:46.693Z,100983.32
2017-08-15T11:57:49.005Z,100967.12
2017-08-15T12:02:51.012Z,100960.92
2017-08-15T12:07:52.979Z,100966.12
2017-08-15T12:12:54.951Z,100961.66
2017-08-15T12:17:56.927Z,100963.64
2017-08-15T12:22:58.956Z,100962.75
2017-08-15T12:28:00.935Z,100959.64
2017-08-15T12:33:02.896Z,100939.23
2017-08-15T12:38:04.887Z,100926.68
2017-08-15T12:43:06.844Z,100924.89
2017-08-15T12:48:08.771Z,100917.00
2017-08-15T12:53:10.790Z,100907.47
2017-08-15T12:58:12.719Z,100892.34
2017-08-15T13:03:14.688Z,100872.45
2017-08-15T13:08:17.495Z,100888.30
2017-08-15T13:13:19.456Z,100883.34
2017-08-15T13:18:21.508Z,100878.25
2017-08-15T13:23:28.255Z,100885.23
2017-08-15T13:28:30.356Z,100893.03
2017-08-15T13:33:32.604Z,100892.00
2017-08-15T13:38:34.667Z,100889.73
2017-08-15T13:43:36.654Z,100881.86
2017-08-15T13:48:38.647Z,100889.73
2017-08-15T13:53:41.549Z,100877.63
2017-08-15T13:58:43.561Z,100881.14
2017-08-15T14:03:45.527Z,100881.81
2017-08-15T14:08:47.511Z,100862.54
2017-08-15T14:13:49.537Z,100866.55
2017-08-15T14:18:51.494Z,100874.68
2017-08-15T14:23:53.864Z,100878.30
2017-08-15T14:28:55.824Z,100868.63
2017-08-15T14:33:57.803Z,100879.94
2017-08-15T14:38:59.868Z,100880.38
2017-08-15T14:44:02.641Z,100875.51
2017-08-15T14:49:04.597Z,100879.62
2017-08-15T14:54:06.608Z,100885.80
2017-08-15T14:59:08.608Z,100900.17
2017-08-15T15:04:10.639Z,100893.26
2017-08-15T15:09:12.651Z,100895.80
2017-08-15T15:14:14.662Z,100888.79
2017-08-15T15:19:18.997Z,100879.37
2017-08-15T15:24:21.044Z,100872.92
2017-08-15T15:29:23.345Z,100879.71
2017-08-15T15:34:25.554Z,100878.05
2017-08-15T15:39:28.772Z,100890.65
2017-08-15T15:44:30.898Z,100881.31
2017-08-15T15:49:33.852Z,100879.59
2017-08-15T15:54:35.866Z,100871.83
2017-08-15T15:59:37.873Z,100860.42
2017-08-15T16:04:39.832Z,100847.65
2017-08-15T16:09:41.815Z,100840.00
2017-08-15T16:14:43.806Z,100844.60
2017-08-15T16:19:45.852Z,100855.09
2017-08-15T16:24:47.933Z,100855.88
2017-08-15T16:29:50.827Z,100853.31
2017-08-15T16:34:54.511Z,100885.55
2017-08-15T16:39:56.594Z,100885.70
2017-08-15T16:44:58.593Z,100872.36
2017-08-15T16:50:00.597Z,100868.37
2017-08-15T16:55:02.696Z,100858.74
2017-08-15T17:00:04.669Z,100858.91
2017-08-15T17:05:06.639Z,100855.27
2017-08-15T17:10:08.622Z,100851.34
2017-08-15T17:15:10.628Z,100844.78
2017-08-15T17:20:12.583Z,100847.11
2017-08-15T17:25:14.695Z,100827.18
2017-08-15T17:30:16.749Z,100841.93
2017-08-15T17:35:19.171Z,100825.58
2017-08-15T17:40:21.675Z,100816.47
2017-08-15T17:45:24.002Z,100806.92
2017-08-15T17:50:26.024Z,100810.84
2017-08-15T17:55:27.972Z,100835.45
2017-08-15T18:00:29.992Z,100854.30
2017-08-15T18:05:31.952Z,100874.33
2017-08-15T18:10:33.932Z,100879.17
2017-08-15T18:15:35.916Z,100900.69
2017-08-15T18:20:37.874Z,100912.08
2017-08-15T18:25:39.845Z,100919.86
2017-08-15T18:30:41.782Z,100941.59
2017-08-15T18:35:43.777Z,100957.90
2017-08-15T18:40:45.909Z,100973.63
2017-08-15T18:45:47.884Z,101056.73
2017-08-15T18:50:49.863Z,101062.43
2017-08-15T18:55:51.854Z,101064.55
2017-08-15T19:00:54.054Z,101078.64
2017-08-15T19:05:58.067Z,101069.97
2017-08-15T19:11:00.045Z,101076.61
2017-08-15T19:16:02.134Z,101089.77
2017-08-15T19:21:04.310Z,101096.77
2017-08-15T19:26:06.321Z,101093.64
2017-08-15T19:31:08.269Z,101099.88
2017-08-15T19:36:10.299Z,101089.56
2017-08-15T19:41:12.291Z,101088.52
2017-08-15T19:46:21.080Z,101093.84
2017-08-15T19:51:23.132Z,101101.11
2017-08-15T19:56:25.291Z,101096.41
2017-08-15T20:01:27.341Z,101092.63
2017-08-15T20:06:29.508Z,101090.39
2017-08-15T20:11:31.562Z,101074.37
2017-08-15T20:16:33.563Z,101079.66
2017-08-15T20:21:35.507Z,101076.81
2017-08-15T20:26:38.205Z,101094.80
2017-08-15T20:31:40.268Z,101106.64
2017-08-15T20:36:42.210Z,101107.06
2017-08-15T20:41:44.275Z,101105.63
2017-08-15T20:46:46.272Z,101099.34
2017-08-15T20:51:48.315Z,101099.80
2017-08-15T20:56:50.348Z,101098.31
2017-08-15T21:01:52.392Z,101113.12
2017-08-15T21:06:54.378Z,101120.72
2017-08-15T21:11:56.331Z,101108.05
2017-08-15T21:16:58.246Z,101105.78
2017-08-15T21:22:00.203Z,101111.86
2017-08-15T21:27:02.878Z,101112.77
2017-08-15T21:32:04.813Z,101115.38
2017-08-15T21:37:06.773Z,101110.81
2017-08-15T21:42:08.716Z,101119.30
2017-08-15T21:47:11.435Z,101117.57
2017-08-15T21:52:13.562Z,101125.09
2017-08-15T21:57:15.584Z,101141.04
2017-08-15T22:02:20.455Z,101146.47
2017-08-15T22:07:22.380Z,101153.73
2017-08-15T22:12:24.315Z,101148.29
2017-08-15T22:17:26.231Z,101187.25
2017-08-15T22:22:28.190Z,101179.88
2017-08-15T22:27:30.132Z,101174.25
2017-08-15T22:32:32.068Z,101167.44
2017-08-15T22:37:34.784Z,101172.15
2017-08-15T22:42:36.782Z,101168.86
2017-08-15T22:47:39.448Z,101165.49
2017-08-15T22:52:41.409Z,101160.73
2017-08-15T22:57:43.380Z,101165.02
2017-08-15T23:02:45.419Z,101160.92
2017-08-15T23:07:47.371Z,101160.37
2017-08-15T23:12:49.372Z,101166.36
2017-08-15T23:17:52.066Z,101176.07
2017-08-15T23:22:54.005Z,101179.34
2017-08-15T23:27:56.663Z,101177.67
2017-08-15T23:32:58.853Z,101182.20
2017-08-15T23:38:01.162Z,101184.94
2017-08-15T23:43:04.181Z,101180.80
2017-08-15T23:48:06.402Z,101195.31
2017-08-15T23:53:09.097Z,101211.97
2017-08-15T23:58:11.067Z,101207.63
